CheckWX is a tool to help pilots better visualize weather data.  It is not intended as a substitute for an official pre-flight weather briefing.

23:20:08 UTC

KRBG TAF
Roseburg Regional Airport
Roseburg, Oregon, USA
KRBG 201728Z 2018/2118 VRB02KT P6SM BKN150

Feb-20@
18:00 UTC

Feb-20 @ 18:00 UTC

Feb-21@
18:00 UTC

Feb-21 @ 18:00 UTC

KRBG 201728Z 2018/2118 VRB02KT P6SM BKN150
Wind
  • Variable at 2 KTS
Cloud Levels
  • Broken at 15,000' AGL